createdAt,value
2023-02-15T00:02:10.969Z,100490.16
2023-02-15T00:04:50.335Z,100495.38
2023-02-15T00:07:20.210Z,100497.13
2023-02-15T00:09:48.230Z,100499.78
2023-02-15T00:12:16.374Z,100497.19
2023-02-15T00:14:43.508Z,100510.25
2023-02-15T00:17:10.815Z,100504.16
2023-02-15T00:19:37.769Z,100503.28
2023-02-15T00:22:05.954Z,100506.78
2023-02-15T00:24:33.333Z,100497.19
2023-02-15T00:27:00.407Z,100496.28
2023-02-15T00:29:27.809Z,100503.22
2023-02-15T00:31:55.794Z,100505.00
2023-02-15T00:34:27.495Z,100506.72
2023-02-15T00:36:55.667Z,100509.34
2023-02-15T00:39:23.110Z,100503.25
2023-02-15T00:41:50.282Z,100510.19
2023-02-15T00:44:18.692Z,100507.59
2023-02-15T00:46:45.947Z,100505.00
2023-02-15T00:49:13.180Z,100509.31
2023-02-15T00:51:40.978Z,100512.72
2023-02-15T00:54:11.752Z,100511.94
2023-02-15T00:56:38.938Z,100507.63
2023-02-15T00:59:06.230Z,100511.94
2023-02-15T01:01:33.826Z,100513.72
2023-02-15T01:04:00.982Z,100512.88
2023-02-15T01:06:30.083Z,100508.47
2023-02-15T01:08:57.173Z,100514.56
2023-02-15T01:11:24.742Z,100517.16
2023-02-15T01:13:57.405Z,100511.00
2023-02-15T01:16:27.333Z,100524.91
2023-02-15T01:18:55.934Z,100508.34
2023-02-15T01:21:25.138Z,100518.81
2023-02-15T01:23:53.161Z,100522.22
2023-02-15T01:26:20.550Z,100517.06
2023-02-15T01:28:48.961Z,100522.34
2023-02-15T01:31:19.334Z,100509.25
2023-02-15T01:33:48.449Z,100509.19
2023-02-15T01:36:18.602Z,100513.56
2023-02-15T01:38:46.709Z,100508.41
2023-02-15T01:41:30.067Z,100513.66
2023-02-15T01:44:00.777Z,100520.59
2023-02-15T01:46:41.924Z,100516.22
2023-02-15T01:49:16.410Z,100522.28
2023-02-15T01:51:46.396Z,100524.91
2023-02-15T01:54:22.493Z,100528.41
2023-02-15T01:56:50.093Z,100526.66
2023-02-15T01:59:22.589Z,100518.84
2023-02-15T02:01:53.890Z,100523.19
2023-02-15T02:04:21.060Z,100523.19
2023-02-15T02:06:50.571Z,100527.56
2023-02-15T02:09:17.960Z,100520.63
2023-02-15T02:11:48.756Z,100525.00
2023-02-15T02:14:17.795Z,100530.19
2023-02-15T02:16:58.778Z,100529.28
2023-02-15T02:19:41.228Z,100525.75
2023-02-15T02:22:50.631Z,100532.66
2023-02-15T02:25:52.200Z,100536.88
2023-02-15T02:28:38.046Z,100543.88
2023-02-15T02:31:27.012Z,100538.63
2023-02-15T02:34:10.187Z,100545.66
2023-02-15T02:36:50.888Z,100545.63
2023-02-15T02:39:24.026Z,100547.28
2023-02-15T02:42:06.642Z,100547.34
2023-02-15T02:44:54.415Z,100553.47
2023-02-15T02:47:31.306Z,100555.19
2023-02-15T02:50:05.314Z,100557.63
2023-02-15T02:52:45.607Z,100551.63
2023-02-15T02:55:24.389Z,100558.59
2023-02-15T02:58:14.988Z,100563.88
2023-02-15T03:00:57.775Z,100557.78
2023-02-15T03:03:35.346Z,100556.06
2023-02-15T03:06:08.172Z,100549.97
2023-02-15T03:08:44.207Z,100556.91
2023-02-15T03:11:12.958Z,100556.91
2023-02-15T03:13:41.746Z,100557.78
2023-02-15T03:16:29.540Z,100553.44
2023-02-15T03:19:09.832Z,100559.56
2023-02-15T03:21:59.099Z,100558.72
2023-02-15T03:24:36.086Z,100563.06
2023-02-15T03:27:07.687Z,100569.16
2023-02-15T03:29:36.501Z,100570.88
2023-02-15T03:32:08.375Z,100567.44
2023-02-15T03:34:35.830Z,100562.19
2023-02-15T03:37:15.082Z,100568.28
2023-02-15T03:40:19.698Z,100567.41
2023-02-15T03:42:50.343Z,100566.50
2023-02-15T03:45:24.440Z,100569.06
2023-02-15T03:47:54.008Z,100572.50
2023-02-15T03:50:44.699Z,100578.63
2023-02-15T03:53:15.512Z,100577.72
2023-02-15T03:55:42.976Z,100583.00
2023-02-15T03:58:28.719Z,100593.47
2023-02-15T04:01:26.103Z,100589.09
2023-02-15T04:04:00.760Z,100595.13
2023-02-15T04:06:28.238Z,100590.81
2023-02-15T04:09:14.199Z,100594.25
2023-02-15T04:11:41.484Z,100595.97
2023-02-15T04:14:27.559Z,100603.69
2023-02-15T04:16:54.853Z,100616.78
2023-02-15T04:19:40.917Z,100606.34
2023-02-15T04:22:26.924Z,100598.47
2023-02-15T04:25:12.949Z,100600.97
2023-02-15T04:27:52.028Z,100601.81
2023-02-15T04:30:21.916Z,100599.19
2023-02-15T04:32:49.324Z,100600.84
2023-02-15T04:35:17.459Z,100607.75
2023-02-15T04:37:45.445Z,100606.00
2023-02-15T04:40:17.353Z,100605.13
2023-02-15T04:42:50.131Z,100611.22
2023-02-15T04:45:18.746Z,100611.09
2023-02-15T04:47:46.386Z,100618.91
2023-02-15T04:50:13.936Z,100617.81
2023-02-15T04:52:41.483Z,100628.13
2023-02-15T04:55:09.878Z,100630.47
2023-02-15T04:57:37.438Z,100627.06
2023-02-15T05:00:05.395Z,100628.56
2023-02-15T05:02:32.632Z,100626.06
2023-02-15T05:05:00.321Z,100632.94
2023-02-15T05:07:27.845Z,100627.59
2023-02-15T05:09:55.944Z,100625.75
2023-02-15T05:12:23.560Z,100631.03
2023-02-15T05:14:50.858Z,100644.00
2023-02-15T05:17:18.269Z,100637.88
2023-02-15T05:19:46.160Z,100635.34
2023-02-15T05:22:14.205Z,100634.53
2023-02-15T05:25:03.885Z,100639.75
2023-02-15T05:27:51.188Z,100651.00
2023-02-15T05:30:19.391Z,100649.94
2023-02-15T05:32:46.867Z,100654.47
2023-02-15T05:35:16.920Z,100667.47
2023-02-15T05:37:45.786Z,100670.19
2023-02-15T05:40:14.645Z,100670.28
2023-02-15T05:42:45.410Z,100677.34
2023-02-15T05:45:14.048Z,100672.22
2023-02-15T05:47:41.295Z,100662.06
2023-02-15T05:50:10.101Z,100663.09
2023-02-15T05:52:39.035Z,100656.28
2023-02-15T05:55:10.400Z,100661.59
2023-02-15T05:57:38.390Z,100657.31
2023-02-15T06:00:11.227Z,100656.50
2023-02-15T06:02:41.770Z,100673.91
2023-02-15T06:05:12.557Z,100679.06
2023-02-15T06:07:40.320Z,100684.97
2023-02-15T06:10:08.769Z,100683.25
2023-02-15T06:12:36.468Z,100684.06
2023-02-15T06:15:05.322Z,100669.22
2023-02-15T06:17:33.292Z,100683.25
2023-02-15T06:20:00.749Z,100678.03
2023-02-15T06:22:28.896Z,100680.66
2023-02-15T06:24:56.651Z,100676.34
2023-02-15T06:27:24.051Z,100677.25
2023-02-15T06:29:52.292Z,100675.75
2023-02-15T06:32:20.647Z,100673.44
2023-02-15T06:34:48.904Z,100686.78
2023-02-15T06:37:16.782Z,100680.91
2023-02-15T06:39:45.646Z,100678.53
2023-02-15T06:42:14.503Z,100681.25
2023-02-15T06:44:42.383Z,100677.81
2023-02-15T06:47:10.577Z,100672.59
2023-02-15T06:49:38.683Z,100676.03
2023-02-15T06:52:07.039Z,100679.44
2023-02-15T06:54:34.441Z,100676.78
2023-02-15T06:57:02.479Z,100676.72
2023-02-15T06:59:30.440Z,100674.91
2023-02-15T07:01:58.044Z,100680.09
2023-02-15T07:04:27.828Z,100666.09
2023-02-15T07:06:56.678Z,100670.41
2023-02-15T07:09:24.088Z,100661.59
2023-02-15T07:12:10.466Z,100668.53
2023-02-15T07:14:38.460Z,100668.34
2023-02-15T07:17:11.730Z,100662.88
2023-02-15T07:19:46.868Z,100649.63
2023-02-15T07:22:14.426Z,100653.91
2023-02-15T07:24:42.573Z,100660.69
2023-02-15T07:27:11.085Z,100665.81
2023-02-15T07:29:40.354Z,100664.81
2023-02-15T07:32:11.551Z,100661.09
2023-02-15T07:34:39.302Z,100668.13
2023-02-15T07:37:06.675Z,100659.88
2023-02-15T07:39:34.736Z,100659.81
2023-02-15T07:42:02.500Z,100661.56
2023-02-15T07:44:31.956Z,100667.75
2023-02-15T07:46:59.116Z,100666.47
2023-02-15T07:49:26.531Z,100675.16
2023-02-15T07:51:54.314Z,100673.13
2023-02-15T07:54:22.361Z,100681.09
2023-02-15T07:56:49.418Z,100684.63
2023-02-15T07:59:17.346Z,100670.34
2023-02-15T08:01:44.998Z,100658.44
2023-02-15T08:04:12.498Z,100667.34
2023-02-15T08:06:40.198Z,100668.28
2023-02-15T08:09:10.322Z,100664.03
2023-02-15T08:11:40.899Z,100655.03
2023-02-15T08:14:14.957Z,100657.31
2023-02-15T08:16:53.890Z,100659.53
2023-02-15T08:19:30.139Z,100656.19
2023-02-15T08:22:00.856Z,100662.00
2023-02-15T08:24:31.762Z,100671.44
2023-02-15T08:26:59.988Z,100665.53
2023-02-15T08:29:29.860Z,100664.78
2023-02-15T08:32:04.035Z,100657.16
2023-02-15T08:34:35.257Z,100662.16
2023-02-15T08:37:03.046Z,100668.63
2023-02-15T08:39:30.719Z,100662.50
2023-02-15T08:41:59.332Z,100657.47
2023-02-15T08:44:26.975Z,100660.53
2023-02-15T08:46:56.070Z,100668.34
2023-02-15T08:49:23.768Z,100665.16
2023-02-15T08:51:51.917Z,100668.66
2023-02-15T08:54:21.971Z,100658.47
2023-02-15T08:56:50.414Z,100668.50
2023-02-15T08:59:23.357Z,100654.47
2023-02-15T09:01:52.735Z,100664.44
2023-02-15T09:04:21.426Z,100662.25
2023-02-15T09:06:54.298Z,100667.75
2023-02-15T09:09:21.825Z,100655.97
2023-02-15T09:11:56.804Z,100668.56
2023-02-15T09:14:29.315Z,100667.41
2023-02-15T09:16:58.281Z,100663.72
2023-02-15T09:19:29.146Z,100660.19
2023-02-15T09:22:00.152Z,100665.56
2023-02-15T09:24:28.760Z,100668.38
2023-02-15T09:26:59.910Z,100663.63
2023-02-15T09:29:28.058Z,100663.59
2023-02-15T09:31:55.541Z,100665.19
2023-02-15T09:34:24.008Z,100671.81
2023-02-15T09:36:52.548Z,100664.09
2023-02-15T09:39:25.095Z,100670.81
2023-02-15T09:42:10.888Z,100668.16
2023-02-15T09:44:56.441Z,100663.94
2023-02-15T09:47:57.064Z,100669.56
2023-02-15T09:50:43.123Z,100658.88
2023-02-15T09:53:22.331Z,100665.56
2023-02-15T09:56:20.762Z,100655.88
2023-02-15T09:58:56.632Z,100660.19
2023-02-15T10:01:40.624Z,100649.19
2023-02-15T10:05:05.299Z,100644.19
2023-02-15T10:07:58.146Z,100649.03
2023-02-15T10:10:46.261Z,100647.53
2023-02-15T10:13:37.957Z,100641.22
2023-02-15T10:16:43.840Z,100644.72
2023-02-15T10:19:32.521Z,100646.41
2023-02-15T10:22:23.488Z,100642.22
2023-02-15T10:25:26.449Z,100636.91
2023-02-15T10:27:54.788Z,100638.97
2023-02-15T10:30:38.987Z,100644.41
2023-02-15T10:33:24.698Z,100639.44
2023-02-15T10:36:13.688Z,100630.72
2023-02-15T10:39:20.045Z,100630.06
2023-02-15T10:42:03.961Z,100628.50
2023-02-15T10:44:53.850Z,100627.66
2023-02-15T10:47:52.273Z,100624.44
2023-02-15T10:50:46.440Z,100626.78
2023-02-15T10:53:38.036Z,100622.88
2023-02-15T10:56:17.911Z,100610.16
2023-02-15T10:59:19.681Z,100621.56
2023-02-15T11:02:08.976Z,100608.22
2023-02-15T11:05:11.875Z,100612.13
2023-02-15T11:07:46.616Z,100617.00
2023-02-15T11:10:36.403Z,100617.44
2023-02-15T11:13:11.182Z,100618.75
2023-02-15T11:15:41.411Z,100613.44
2023-02-15T11:18:32.126Z,100618.59
2023-02-15T11:21:05.601Z,100615.69
2023-02-15T11:23:39.378Z,100614.44
2023-02-15T11:26:38.391Z,100610.28
2023-02-15T11:29:17.318Z,100606.91
2023-02-15T11:31:47.793Z,100606.63
2023-02-15T11:34:35.503Z,100608.69
2023-02-15T11:37:20.241Z,100606.44
2023-02-15T11:39:52.833Z,100612.34
2023-02-15T11:42:23.492Z,100614.34
2023-02-15T11:45:03.820Z,100618.03
2023-02-15T11:47:31.376Z,100609.91
2023-02-15T11:49:59.345Z,100614.06
2023-02-15T11:52:27.104Z,100608.84
2023-02-15T11:54:55.132Z,100609.25
2023-02-15T11:57:41.627Z,100608.31
2023-02-15T12:00:27.667Z,100602.97
2023-02-15T12:02:58.760Z,100605.28
2023-02-15T12:05:26.971Z,100606.84
2023-02-15T12:08:02.595Z,100599.50
2023-02-15T12:10:40.200Z,100605.69
2023-02-15T12:13:17.019Z,100601.19
2023-02-15T12:15:50.154Z,100604.00
2023-02-15T12:18:22.924Z,100600.72
2023-02-15T12:20:50.670Z,100601.38
2023-02-15T12:23:20.265Z,100593.47
2023-02-15T12:25:57.429Z,100594.03
2023-02-15T12:28:42.917Z,100594.03
2023-02-15T12:31:37.672Z,100591.94
2023-02-15T12:34:30.301Z,100594.63
2023-02-15T12:37:02.171Z,100591.28
2023-02-15T12:39:33.346Z,100592.47
2023-02-15T12:42:16.167Z,100603.91
2023-02-15T12:44:56.888Z,100602.31
2023-02-15T12:47:28.864Z,100598.09
2023-02-15T12:50:23.818Z,100607.75
2023-02-15T12:53:06.706Z,100612.25
2023-02-15T12:55:35.197Z,100617.66
2023-02-15T12:58:17.328Z,100615.28
2023-02-15T13:00:45.867Z,100608.84
2023-02-15T13:03:22.783Z,100616.38
2023-02-15T13:05:56.899Z,100617.66
2023-02-15T13:08:34.724Z,100616.25
2023-02-15T13:11:13.128Z,100616.69
2023-02-15T13:13:59.554Z,100618.59
2023-02-15T13:16:38.123Z,100627.66
2023-02-15T13:19:18.556Z,100620.06
2023-02-15T13:21:51.706Z,100622.69
2023-02-15T13:24:31.691Z,100619.31
2023-02-15T13:27:14.559Z,100621.13
2023-02-15T13:29:53.171Z,100625.59
2023-02-15T13:32:32.671Z,100625.69
2023-02-15T13:35:06.420Z,100635.34
2023-02-15T13:38:11.833Z,100633.59
2023-02-15T13:41:08.086Z,100639.84
2023-02-15T13:44:16.792Z,100642.59
2023-02-15T13:46:57.863Z,100646.13
2023-02-15T13:49:37.670Z,100647.00
2023-02-15T13:52:27.976Z,100647.91
2023-02-15T13:55:33.280Z,100647.00
2023-02-15T13:58:03.828Z,100646.16
2023-02-15T14:00:51.803Z,100640.88
2023-02-15T14:03:31.250Z,100648.72
2023-02-15T14:06:21.710Z,100632.97
2023-02-15T14:09:10.694Z,100644.34
2023-02-15T14:12:00.104Z,100640.88
2023-02-15T14:14:59.812Z,100640.81
2023-02-15T14:17:30.819Z,100641.66
2023-02-15T14:20:01.599Z,100645.13
2023-02-15T14:22:36.988Z,100638.06
2023-02-15T14:25:20.563Z,100631.78
2023-02-15T14:28:07.015Z,100643.16
2023-02-15T14:30:44.640Z,100633.50
2023-02-15T14:33:50.218Z,100638.72
2023-02-15T14:36:23.588Z,100630.81
2023-02-15T14:39:43.934Z,100642.25
2023-02-15T14:42:43.763Z,100627.44
2023-02-15T14:45:28.761Z,100633.56
2023-02-15T14:48:14.688Z,100637.00
2023-02-15T14:50:47.765Z,100640.59
2023-02-15T14:53:34.322Z,100636.28
2023-02-15T14:56:19.943Z,100645.13
2023-02-15T14:58:53.614Z,100648.59
2023-02-15T15:01:28.770Z,100647.75
2023-02-15T15:04:01.536Z,100644.28
2023-02-15T15:06:35.977Z,100646.94
2023-02-15T15:09:26.930Z,100654.88
2023-02-15T15:12:16.251Z,100655.78
2023-02-15T15:14:46.918Z,100658.44
2023-02-15T15:17:34.277Z,100662.84
2023-02-15T15:20:04.203Z,100661.13
2023-02-15T15:22:33.856Z,100660.25
2023-02-15T15:25:10.776Z,100662.00
2023-02-15T15:27:48.739Z,100669.88
2023-02-15T15:30:25.284Z,100668.16
2023-02-15T15:32:56.340Z,100668.16
2023-02-15T15:36:16.098Z,100676.03
2023-02-15T15:39:04.192Z,100674.28
2023-02-15T15:41:53.388Z,100676.06
2023-02-15T15:44:58.702Z,100683.91
2023-02-15T15:48:06.388Z,100678.69
2023-02-15T15:50:34.696Z,100685.69
2023-02-15T15:53:03.686Z,100688.28
2023-02-15T15:55:33.511Z,100686.53
2023-02-15T15:58:08.197Z,100685.69
2023-02-15T16:00:48.316Z,100681.34
2023-02-15T16:03:28.960Z,100681.34
2023-02-15T16:05:57.504Z,100684.81
2023-02-15T16:08:29.152Z,100685.69
2023-02-15T16:10:57.188Z,100682.22
2023-02-15T16:13:24.964Z,100686.56
2023-02-15T16:15:55.583Z,100690.03
2023-02-15T16:18:26.759Z,100701.41
2023-02-15T16:21:00.610Z,100690.06
2023-02-15T16:23:37.150Z,100692.69
2023-02-15T16:26:04.987Z,100694.41
2023-02-15T16:28:32.536Z,100694.41
2023-02-15T16:31:13.775Z,100689.16
2023-02-15T16:33:42.777Z,100693.53
2023-02-15T16:36:32.909Z,100698.78
2023-02-15T16:38:59.914Z,100702.25
2023-02-15T16:41:30.107Z,100703.13
2023-02-15T16:44:01.083Z,100707.50
2023-02-15T16:46:57.749Z,100706.63
2023-02-15T16:49:28.821Z,100710.13
2023-02-15T16:52:02.428Z,100711.00
2023-02-15T16:54:32.557Z,100719.72
2023-02-15T16:57:00.664Z,100714.47
2023-02-15T16:59:36.335Z,100711.00
2023-02-15T17:02:20.366Z,100718.84
2023-02-15T17:05:12.969Z,100721.47
2023-02-15T17:07:42.534Z,100719.72
2023-02-15T17:10:30.083Z,100713.59
2023-02-15T17:13:03.776Z,100717.97
2023-02-15T17:15:38.222Z,100711.00
2023-02-15T17:18:12.256Z,100706.63
2023-02-15T17:20:45.365Z,100710.97
2023-02-15T17:23:43.318Z,100707.50
2023-02-15T17:26:23.653Z,100710.09
2023-02-15T17:28:54.212Z,100712.72
2023-02-15T17:31:22.730Z,100717.06
2023-02-15T17:33:50.581Z,100711.81
2023-02-15T17:36:23.080Z,100715.34
2023-02-15T17:38:59.059Z,100709.22
2023-02-15T17:41:28.758Z,100710.09
2023-02-15T17:43:56.293Z,100711.84
2023-02-15T17:46:24.734Z,100711.84
2023-02-15T17:48:55.226Z,100714.44
2023-02-15T17:51:23.812Z,100709.19
2023-02-15T17:54:10.133Z,100704.81
2023-02-15T17:56:39.251Z,100713.56
2023-02-15T17:59:11.466Z,100709.19
2023-02-15T18:02:04.581Z,100710.03
2023-02-15T18:04:51.693Z,100713.53
2023-02-15T18:07:39.032Z,100714.38
2023-02-15T18:10:36.828Z,100710.91
2023-02-15T18:13:04.625Z,100720.50
2023-02-15T18:15:32.498Z,100716.13
2023-02-15T18:18:00.092Z,100722.22
2023-02-15T18:20:34.430Z,100721.38
2023-02-15T18:23:02.390Z,100719.63
2023-02-15T18:25:29.976Z,100720.50
2023-02-15T18:27:57.440Z,100711.78
2023-02-15T18:30:28.383Z,100715.25
2023-02-15T18:32:57.809Z,100716.13
2023-02-15T18:35:29.003Z,100716.16
2023-02-15T18:37:57.016Z,100717.00
2023-02-15T18:40:27.748Z,100721.38
2023-02-15T18:42:57.381Z,100721.34
2023-02-15T18:45:33.280Z,100710.03
2023-02-15T18:48:01.239Z,100714.38
2023-02-15T18:50:33.410Z,100715.25
2023-02-15T18:53:06.493Z,100717.88
2023-02-15T18:55:35.888Z,100710.88
2023-02-15T18:58:03.592Z,100714.38
2023-02-15T19:00:34.843Z,100716.97
2023-02-15T19:03:05.369Z,100716.09
2023-02-15T19:05:34.161Z,100718.72
2023-02-15T19:08:05.683Z,100719.59
2023-02-15T19:10:37.201Z,100716.09
2023-02-15T19:13:04.787Z,100719.59
2023-02-15T19:15:32.149Z,100721.34
2023-02-15T19:17:59.798Z,100717.88
2023-02-15T19:20:44.210Z,100707.41
2023-02-15T19:23:25.178Z,100714.34
2023-02-15T19:25:54.496Z,100707.38
2023-02-15T19:28:30.075Z,100708.22
2023-02-15T19:31:00.828Z,100705.59
2023-02-15T19:33:28.210Z,100709.97
2023-02-15T19:35:57.758Z,100703.84
2023-02-15T19:38:31.319Z,100697.75
2023-02-15T19:41:05.910Z,100695.97
2023-02-15T19:43:35.583Z,100701.22
2023-02-15T19:46:03.203Z,100702.97
2023-02-15T19:48:31.484Z,100708.13
2023-02-15T19:50:58.909Z,100706.41
2023-02-15T19:53:28.375Z,100704.69
2023-02-15T19:55:56.262Z,100709.91
2023-02-15T19:58:23.953Z,100715.97
2023-02-15T20:00:52.423Z,100715.13
2023-02-15T20:03:25.439Z,100715.09
2023-02-15T20:05:53.671Z,100708.13
2023-02-15T20:08:23.618Z,100702.06
2023-02-15T20:10:52.821Z,100702.06
2023-02-15T20:13:24.165Z,100703.75
2023-02-15T20:15:52.639Z,100702.88
2023-02-15T20:18:23.487Z,100706.34
2023-02-15T20:20:53.740Z,100706.38
2023-02-15T20:23:31.418Z,100701.13
2023-02-15T20:26:01.251Z,100704.56
2023-02-15T20:28:32.175Z,100703.72
2023-02-15T20:31:00.220Z,100698.44
2023-02-15T20:33:27.929Z,100703.69
2023-02-15T20:35:55.254Z,100698.47
2023-02-15T20:38:25.857Z,100703.69
2023-02-15T20:41:12.903Z,100706.31
2023-02-15T20:43:42.244Z,100703.69
2023-02-15T20:46:09.536Z,100697.56
2023-02-15T20:48:37.201Z,100694.94
2023-02-15T20:51:05.332Z,100696.72
2023-02-15T20:53:32.647Z,100691.47
2023-02-15T20:56:00.151Z,100691.50
2023-02-15T20:58:30.700Z,100697.56
2023-02-15T21:00:59.464Z,100695.84
2023-02-15T21:03:31.335Z,100700.19
2023-02-15T21:05:59.768Z,100697.59
2023-02-15T21:08:27.796Z,100687.09
2023-02-15T21:10:55.520Z,100699.28
2023-02-15T21:13:27.543Z,100688.00
2023-02-15T21:15:56.071Z,100687.13
2023-02-15T21:18:33.560Z,100684.50
2023-02-15T21:21:04.065Z,100688.81
2023-02-15T21:23:38.395Z,100688.81
2023-02-15T21:26:07.819Z,100691.44
2023-02-15T21:28:35.180Z,100694.06
2023-02-15T21:31:03.074Z,100692.31
2023-02-15T21:33:30.623Z,100690.56
2023-02-15T21:35:59.281Z,100687.94
2023-02-15T21:38:32.495Z,100687.09
2023-02-15T21:41:19.657Z,100688.78
2023-02-15T21:44:05.553Z,100687.94
2023-02-15T21:46:51.807Z,100684.41
2023-02-15T21:49:23.231Z,100694.03
2023-02-15T21:52:09.723Z,100687.03
2023-02-15T21:54:37.027Z,100687.91
2023-02-15T21:57:04.561Z,100692.22
2023-02-15T21:59:33.039Z,100694.00
2023-02-15T22:02:00.361Z,100686.13
2023-02-15T22:04:30.499Z,100693.97
2023-02-15T22:06:58.140Z,100689.63
2023-02-15T22:09:27.316Z,100680.91
2023-02-15T22:11:55.509Z,100688.75
2023-02-15T22:14:43.163Z,100687.00
2023-02-15T22:17:19.363Z,100684.38
2023-02-15T22:19:48.172Z,100684.38
2023-02-15T22:22:16.338Z,100685.25
2023-02-15T22:24:44.656Z,100686.13
2023-02-15T22:27:23.317Z,100676.53
2023-02-15T22:29:50.831Z,100674.75
2023-02-15T22:32:21.493Z,100674.75
2023-02-15T22:34:52.269Z,100673.88
2023-02-15T22:37:19.727Z,100673.00
2023-02-15T22:39:47.174Z,100680.84
2023-02-15T22:42:28.031Z,100676.47
2023-02-15T22:44:57.419Z,100674.72
2023-02-15T22:47:27.820Z,100680.84
2023-02-15T22:49:55.990Z,100678.22
2023-02-15T22:52:23.395Z,100679.97
2023-02-15T22:54:50.618Z,100685.16
2023-02-15T22:57:36.110Z,100687.78
2023-02-15T23:00:06.499Z,100679.94
2023-02-15T23:02:33.638Z,100688.66
2023-02-15T23:05:01.084Z,100686.03
2023-02-15T23:07:28.689Z,100687.78
2023-02-15T23:09:55.796Z,100689.50
2023-02-15T23:12:29.096Z,100684.28
2023-02-15T23:14:57.565Z,100686.91
2023-02-15T23:17:24.701Z,100686.00
2023-02-15T23:19:52.136Z,100683.41
2023-02-15T23:22:20.778Z,100686.88
2023-02-15T23:24:52.961Z,100688.63
2023-02-15T23:27:38.960Z,100675.56
2023-02-15T23:30:12.696Z,100690.38
2023-02-15T23:32:40.839Z,100691.22
2023-02-15T23:35:19.175Z,100691.22
2023-02-15T23:37:46.705Z,100683.38
2023-02-15T23:40:37.904Z,100692.09
2023-02-15T23:43:06.989Z,100683.38
2023-02-15T23:45:38.328Z,100675.53
2023-02-15T23:48:29.910Z,100688.59
2023-02-15T23:50:58.146Z,100682.50
2023-02-15T23:53:25.824Z,100681.66
2023-02-15T23:55:53.674Z,100685.13
2023-02-15T23:58:26.263Z,100686.84
